Stone, Idaho
Current Conditions -  °F | °C
As of 3:51 AM on Wednesday 26 Nov 2014 (Local Time) from KLGU Reporting Station
Overcast Overcast  
Wind Chill: 45°   Ceiling: 5000
Heat Index: 45°   Visibility: 10mi
Dew Point: 35°   Wind: 3mph
Humidity: 68%   Direction: 80°E
Pressure: 30.29"   Gusts: NA
Location:  42.04°N, 112.71°W
Report Text: KLGU 261051Z AUTO 08003KT 10SM OVC050 07/02 A3029 RMK AO2 SLP252 T00720017
Loading
Personal Weather Stations






























Interactive Weather Map New forecast layout! Learn more

10-Day Weather Forecast

Advertisements
Track Severe Weather on mobile